Language: 


Des rapports , des résumés tant et plus, au choix de chacun....


Données Historiques de Météogheer
Journalier Rapport pour Février 19, 2018 Unitée:  Les deux    Impériale   Métrique
Suivant Jour »
Journalier Hebdomadaire Mensuel Annuel Sur mesure
  Max: Min: Moyenne:
Température: 39.4 °F /  4.1 °C 33.4 °F /  0.8 °C 36.9 °F /  2.7 °C
Point de rosée: 39.2 °F /  4.0 °C 32 °F /  0.0 °C 36 °F /  2.2 °C
Humidité: 98% 82% 95%
Vent: 10.3mph /  16.6km/h - 2.9mph /  4.7km/h
Rafales: 19.5mph /  31.4km/h - -
Vent- - South
Pression: 30.2 in /  1020.9 hPa 29.9 in /  1014.1 hPa -
Pluie: 0.1 in /  2.5 mm    
Historical Graphs
 
 
Données tabulaires pour Février 19, 2018
Heure Température Point de rosée Pression Vent Vent Rafales Humidité Pluie Taux (Horaire) Conditions
00:02 37.4 °F /  3.0 °C 33.8 °F /  1.0 °C 30.2in /  1020.9hPa Calm   6.9mph /  11.1km/h 82% 0in /  0.0mm
00:07 37.4 °F /  3.0 °C 33.8 °F /  1.0 °C 30.2in /  1020.9hPa Calm   6.9mph /  11.1km/h 82% 0in /  0.0mm
00:12 37.2 °F /  2.9 °C 33.8 °F /  1.0 °C 30.2in /  1020.9hPa SSE 4.3mph /  6.9km/h 4.3mph /  6.9km/h 83% 0in /  0.0mm
00:17 37.2 °F /  2.9 °C 33.8 °F /  1.0 °C 30.2in /  1020.9hPa Calm   6.5mph /  10.5km/h 83% 0in /  0.0mm
00:22 37 °F /  2.8 °C 33.8 °F /  1.0 °C 30.2in /  1020.9hPa SSE 6.5mph /  10.5km/h 6.5mph /  10.5km/h 83% 0in /  0.0mm
00:27 37 °F /  2.8 °C 33.8 °F /  1.0 °C 30.2in /  1020.9hPa Calm   6.5mph /  10.5km/h 83% 0in /  0.0mm
00:32 37 °F /  2.8 °C 33.8 °F /  1.0 °C 30.2in /  1020.9hPa Calm   6.3mph /  10.1km/h 83% 0in /  0.0mm
00:37 36.9 °F /  2.7 °C 32 °F /  0.0 °C 30.2in /  1020.9hPa Calm   5.8mph /  9.3km/h 83% 0in /  0.0mm
00:42 36.9 °F /  2.7 °C 32 °F /  0.0 °C 30.2in /  1020.9hPa South 4.3mph /  6.9km/h 5.8mph /  9.3km/h 83% 0in /  0.0mm
00:47 36.9 °F /  2.7 °C 32 °F /  0.0 °C 30.2in /  1020.9hPa Calm   5.8mph /  9.3km/h 83% 0in /  0.0mm
00:52 36.7 °F /  2.6 °C 32 °F /  0.0 °C 30.2in /  1020.9hPa Calm   5.4mph /  8.7km/h 83% 0in /  0.0mm
00:57 36.7 °F /  2.6 °C 32 °F /  0.0 °C 30.2in /  1020.9hPa Calm   4mph /  6.4km/h 83% 0in /  0.0mm
01:02 36.7 °F /  2.6 °C 32 °F /  0.0 °C 30.2in /  1020.9hPa Calm   4mph /  6.4km/h 83% 0in /  0.0mm
01:07 36.5 °F /  2.5 °C 32 °F /  0.0 °C 30.2in /  1020.9hPa SE 4mph /  6.4km/h 19.5mph /  31.4km/h 83% 0in /  0.0mm
01:12 36.3 °F /  2.4 °C 32 °F /  0.0 °C 30.2in /  1020.9hPa Calm   19.5mph /  31.4km/h 83% 0in /  0.0mm
01:17 36.3 °F /  2.4 °C 32 °F /  0.0 °C 30.2in /  1020.9hPa South 2.5mph /  4.0km/h 4.9mph /  7.9km/h 83% 0in /  0.0mm
01:22 36.1 °F /  2.3 °C 32 °F /  0.0 °C 30.2in /  1020.9hPa South 2.5mph /  4.0km/h 4mph /  6.4km/h 83% 0in /  0.0mm
01:27 36 °F /  2.2 °C 32 °F /  0.0 °C 30.2in /  1020.9hPa Calm   4.5mph /  7.2km/h 83% 0in /  0.0mm
01:32 35.8 °F /  2.1 °C 32 °F /  0.0 °C 30.2in /  1020.9hPa Calm   4.5mph /  7.2km/h 84% 0in /  0.0mm
01:37 35.8 °F /  2.1 °C 32 °F /  0.0 °C 30.2in /  1020.9hPa Calm   2.7mph /  4.3km/h 84% 0in /  0.0mm
01:42 35.8 °F /  2.1 °C 32 °F /  0.0 °C 30.2in /  1020.9hPa Calm   4mph /  6.4km/h 84% 0in /  0.0mm
01:48 35.6 °F /  2.0 °C 32 °F /  0.0 °C 30.1in /  1019.9hPa South 2.5mph /  4.0km/h 5.4mph /  8.7km/h 85% 0in /  0.0mm
01:53 35.6 °F /  2.0 °C 32 °F /  0.0 °C 30.1in /  1019.9hPa SSW 2.9mph /  4.7km/h 5.4mph /  8.7km/h 85% 0in /  0.0mm
01:58 35.4 °F /  1.9 °C 32 °F /  0.0 °C 30.1in /  1019.9hPa South 1.3mph /  2.1km/h 4.3mph /  6.9km/h 86% 0in /  0.0mm
02:03 35.4 °F /  1.9 °C 32 °F /  0.0 °C 30.1in /  1019.9hPa South 3.1mph /  5.0km/h 4.3mph /  6.9km/h 86% 0in /  0.0mm
02:08 35.4 °F /  1.9 °C 32 °F /  0.0 °C 30.1in /  1019.9hPa SSE 3.1mph /  5.0km/h 5.4mph /  8.7km/h 86% 0in /  0.0mm
02:13 35.4 °F /  1.9 °C 32 °F /  0.0 °C 30.1in /  1019.9hPa Calm   5.8mph /  9.3km/h 86% 0in /  0.0mm
02:18 35.4 °F /  1.9 °C 32 °F /  0.0 °C 30.1in /  1019.9hPa Calm   5.8mph /  9.3km/h 86% 0in /  0.0mm
02:23 35.4 °F /  1.9 °C 32 °F /  0.0 °C 30.1in /  1019.9hPa SSW 2.2mph /  3.5km/h 4.3mph /  6.9km/h 86% 0in /  0.0mm
02:28 35.2 °F /  1.8 °C 32 °F /  0.0 °C 30.1in /  1019.9hPa SSW 3.8mph /  6.1km/h 6.9mph /  11.1km/h 87% 0in /  0.0mm
02:33 35.2 °F /  1.8 °C 32 °F /  0.0 °C 30.1in /  1019.9hPa Calm   6.9mph /  11.1km/h 87% 0in /  0.0mm
02:38 35.2 °F /  1.8 °C 32 °F /  0.0 °C 30.1in /  1019.9hPa SSE 3.4mph /  5.5km/h 4.9mph /  7.9km/h 87% 0in /  0.0mm
02:43 35.2 °F /  1.8 °C 32 °F /  0.0 °C 30.1in /  1019.9hPa SSW 2.7mph /  4.3km/h 5.8mph /  9.3km/h 87% 0in /  0.0mm
02:48 35.2 °F /  1.8 °C 32 °F /  0.0 °C 30.1in /  1019.9hPa South 1.1mph /  1.8km/h 8.1mph /  13.0km/h 87% 0in /  0.0mm
02:53 35.2 °F /  1.8 °C 32 °F /  0.0 °C 30.1in /  1019.9hPa South 6.3mph /  10.1km/h 8.1mph /  13.0km/h 87% 0in /  0.0mm
02:58 35.1 °F /  1.7 °C 32 °F /  0.0 °C 30.1in /  1019.9hPa Calm   7.6mph /  12.2km/h 87% 0in /  0.0mm
03:03 35.1 °F /  1.7 °C 32 °F /  0.0 °C 30.1in /  1018.8hPa South 1.6mph /  2.6km/h 7.6mph /  12.2km/h 88% 0in /  0.0mm
03:08 35.1 °F /  1.7 °C 32 °F /  0.0 °C 30.1in /  1018.8hPa Calm   5.8mph /  9.3km/h 88% 0in /  0.0mm
03:13 35.1 °F /  1.7 °C 32 °F /  0.0 °C 30.1in /  1018.8hPa South 2.9mph /  4.7km/h 5.6mph /  9.0km/h 88% 0in /  0.0mm
03:18 35.1 °F /  1.7 °C 32 °F /  0.0 °C 30.1in /  1018.8hPa South 1.1mph /  1.8km/h 5.6mph /  9.0km/h 88% 0in /  0.0mm
03:23 34.9 °F /  1.6 °C 32 °F /  0.0 °C 30.1in /  1018.8hPa Calm   5.6mph /  9.0km/h 88% 0in /  0.0mm
03:28 34.9 °F /  1.6 °C 32 °F /  0.0 °C 30.1in /  1018.8hPa South 2.7mph /  4.3km/h 6mph /  9.7km/h 88% 0in /  0.0mm
03:33 34.9 °F /  1.6 °C 32 °F /  0.0 °C 30.1in /  1018.8hPa SSE 2.9mph /  4.7km/h 7.4mph /  11.9km/h 88% 0in /  0.0mm
03:38 34.7 °F /  1.5 °C 32 °F /  0.0 °C 30.1in /  1018.8hPa Calm   8.1mph /  13.0km/h 89% 0in /  0.0mm
03:43 34.7 °F /  1.5 °C 32 °F /  0.0 °C 30.1in /  1018.8hPa SSE 4mph /  6.4km/h 8.5mph /  13.7km/h 89% 0in /  0.0mm
03:49 34.5 °F /  1.4 °C 32 °F /  0.0 °C 30.1in /  1018.8hPa SSW 4.5mph /  7.2km/h 8.5mph /  13.7km/h 89% 0in /  0.0mm
03:54 34.5 °F /  1.4 °C 32 °F /  0.0 °C 30.1in /  1018.8hPa SSW 2.9mph /  4.7km/h 7.6mph /  12.2km/h 89% 0in /  0.0mm
03:59 34.5 °F /  1.4 °C 32 °F /  0.0 °C 30.1in /  1018.8hPa Calm   8.1mph /  13.0km/h 89% 0in /  0.0mm
04:04 34.3 °F /  1.3 °C 32 °F /  0.0 °C 30.1in /  1018.8hPa South 4.7mph /  7.6km/h 8.1mph /  13.0km/h 90% 0in /  0.0mm
04:09 34.3 °F /  1.3 °C 32 °F /  0.0 °C 30.1in /  1018.8hPa Calm   6.5mph /  10.5km/h 90% 0in /  0.0mm
04:14 34.3 °F /  1.3 °C 32 °F /  0.0 °C 30.1in /  1018.8hPa SSW 3.6mph /  5.8km/h 9.4mph /  15.1km/h 90% 0in /  0.0mm
04:19 34.2 °F /  1.2 °C 32 °F /  0.0 °C 30.1in /  1018.8hPa SSW 5.6mph /  9.0km/h 9.4mph /  15.1km/h 90% 0in /  0.0mm
04:24 34.2 °F /  1.2 °C 32 °F /  0.0 °C 30.1in /  1018.8hPa South 4.3mph /  6.9km/h 5.8mph /  9.3km/h 91% 0in /  0.0mm
04:29 34.2 °F /  1.2 °C 32 °F /  0.0 °C 30.1in /  1018.8hPa South 0.9mph /  1.4km/h 7.6mph /  12.2km/h 91% 0in /  0.0mm
04:34 34 °F /  1.1 °C 32 °F /  0.0 °C 30.1in /  1018.8hPa South 2.5mph /  4.0km/h 8.1mph /  13.0km/h 91% 0in /  0.0mm
04:39 34 °F /  1.1 °C 32 °F /  0.0 °C 30.1in /  1018.8hPa SSW 4.3mph /  6.9km/h 8.1mph /  13.0km/h 91% 0in /  0.0mm
04:44 34 °F /  1.1 °C 32 °F /  0.0 °C 30.1in /  1018.8hPa Calm   6mph /  9.7km/h 91% 0in /  0.0mm
04:49 34 °F /  1.1 °C 32 °F /  0.0 °C 30.1in /  1018.8hPa Calm   6.3mph /  10.1km/h 91% 0in /  0.0mm
04:54 34 °F /  1.1 °C 32 °F /  0.0 °C 30.1in /  1018.8hPa Calm   6.5mph /  10.5km/h 92% 0in /  0.0mm
04:59 33.8 °F /  1.0 °C 32 °F /  0.0 °C 30.1in /  1018.8hPa South 3.6mph /  5.8km/h 6.5mph /  10.5km/h 92% 0in /  0.0mm
05:04 33.8 °F /  1.0 °C 32 °F /  0.0 °C 30.1in /  1018.8hPa South 3.8mph /  6.1km/h 7.4mph /  11.9km/h 92% 0in /  0.0mm
05:09 33.8 °F /  1.0 °C 32 °F /  0.0 °C 30.1in /  1018.8hPa SSW 5.8mph /  9.3km/h 7.8mph /  12.6km/h 93% 0in /  0.0mm
05:14 33.8 °F /  1.0 °C 32 °F /  0.0 °C 30.1in /  1018.8hPa South 5.8mph /  9.3km/h 7.8mph /  12.6km/h 93% 0in /  0.0mm
05:19 33.8 °F /  1.0 °C 32 °F /  0.0 °C 30.1in /  1018.8hPa SSE 3.1mph /  5.0km/h 7.2mph /  11.6km/h 93% 0in /  0.0mm
05:24 33.8 °F /  1.0 °C 32 °F /  0.0 °C 30.1in /  1018.8hPa South 6mph /  9.7km/h 7.8mph /  12.6km/h 93% 0in /  0.0mm
05:29 33.8 °F /  1.0 °C 32 °F /  0.0 °C 30.1in /  1018.8hPa SSW 3.6mph /  5.8km/h 7.8mph /  12.6km/h 93% 0in /  0.0mm
05:34 33.6 °F /  0.9 °C 32 °F /  0.0 °C 30.1in /  1018.8hPa SSE 6.3mph /  10.1km/h 8.7mph /  14.0km/h 94% 0in /  0.0mm
05:39 33.6 °F /  0.9 °C 32 °F /  0.0 °C 30.1in /  1018.8hPa SSE 6mph /  9.7km/h 8.7mph /  14.0km/h 94% 0in /  0.0mm
05:44 33.6 °F /  0.9 °C 32 °F /  0.0 °C 30.1in /  1018.2hPa SSW 3.1mph /  5.0km/h 7.6mph /  12.2km/h 94% 0in /  0.0mm
05:50 33.6 °F /  0.9 °C 32 °F /  0.0 °C 30.1in /  1018.2hPa Calm   6.7mph /  10.8km/h 94% 0in /  0.0mm
05:55 33.6 °F /  0.9 °C 32 °F /  0.0 °C 30.1in /  1018.2hPa SSE 6mph /  9.7km/h 6.3mph /  10.1km/h 94% 0in /  0.0mm
06:00 33.6 °F /  0.9 °C 32 °F /  0.0 °C 30.1in /  1018.2hPa South 4.9mph /  7.9km/h 9.2mph /  14.8km/h 94% 0in /  0.0mm
06:05 33.6 °F /  0.9 °C 32 °F /  0.0 °C 30.1in /  1018.2hPa SW 4.3mph /  6.9km/h 9.2mph /  14.8km/h 94% 0in /  0.0mm
06:10 33.4 °F /  0.8 °C 32 °F /  0.0 °C 30.1in /  1018.2hPa SSE 4mph /  6.4km/h 7.4mph /  11.9km/h 94% 0in /  0.0mm
06:15 33.4 °F /  0.8 °C 32 °F /  0.0 °C 30.1in /  1018.8hPa SSE 4.3mph /  6.9km/h 7.6mph /  12.2km/h 94% 0in /  0.0mm
06:20 33.4 °F /  0.8 °C 32 °F /  0.0 °C 30.1in /  1018.8hPa South 2mph /  3.2km/h 8.1mph /  13.0km/h 94% 0in /  0.0mm
06:25 33.6 °F /  0.9 °C 32 °F /  0.0 °C 30.1in /  1018.8hPa SSW 5.6mph /  9.0km/h 8.1mph /  13.0km/h 94% 0in /  0.0mm
06:30 33.6 °F /  0.9 °C 32 °F /  0.0 °C 30.1in /  1018.2hPa Calm   7.2mph /  11.6km/h 94% 0in /  0.0mm
06:35 33.6 °F /  0.9 °C 32 °F /  0.0 °C 30.1in /  1018.2hPa Calm   6.3mph /  10.1km/h 94% 0in /  0.0mm
06:40 33.6 °F /  0.9 °C 32 °F /  0.0 °C 30.1in /  1018.2hPa Calm   4.7mph /  7.6km/h 94% 0in /  0.0mm
06:45 33.6 °F /  0.9 °C 32 °F /  0.0 °C 30.1in /  1018.2hPa South 6.5mph /  10.5km/h 8.7mph /  14.0km/h 94% 0in /  0.0mm
06:50 33.6 °F /  0.9 °C 32 °F /  0.0 °C 30.1in /  1018.2hPa South 6mph /  9.7km/h 8.7mph /  14.0km/h 94% 0in /  0.0mm
06:55 33.6 °F /  0.9 °C 32 °F /  0.0 °C 30.1in /  1018.2hPa Calm   7.6mph /  12.2km/h 94% 0in /  0.0mm
07:00 33.6 °F /  0.9 °C 32 °F /  0.0 °C 30.1in /  1018.2hPa South 1.1mph /  1.8km/h 7.4mph /  11.9km/h 94% 0in /  0.0mm
07:05 33.6 °F /  0.9 °C 32 °F /  0.0 °C 30.1in /  1018.2hPa South 1.3mph /  2.1km/h 7.4mph /  11.9km/h 94% 0in /  0.0mm
07:10 33.6 °F /  0.9 °C 32 °F /  0.0 °C 30.1in /  1018.2hPa SSW 5.8mph /  9.3km/h 6.5mph /  10.5km/h 94% 0in /  0.0mm
07:15 33.6 °F /  0.9 °C 32 °F /  0.0 °C 30.1in /  1018.2hPa South 3.1mph /  5.0km/h 6.5mph /  10.5km/h 94% 0in /  0.0mm
07:20 33.6 °F /  0.9 °C 32 °F /  0.0 °C 30.1in /  1018.2hPa SSE 4.7mph /  7.6km/h 6.3mph /  10.1km/h 94% 0in /  0.0mm
07:25 33.6 °F /  0.9 °C 32 °F /  0.0 °C 30.1in /  1018.2hPa Calm   6mph /  9.7km/h 94% 0in /  0.0mm
07:30 33.6 °F /  0.9 °C 32 °F /  0.0 °C 30.1in /  1018.8hPa South 5.8mph /  9.3km/h 6mph /  9.7km/h 94% 0in /  0.0mm
07:35 33.6 °F /  0.9 °C 32 °F /  0.0 °C 30.1in /  1018.8hPa Calm   7.2mph /  11.6km/h 94% 0in /  0.0mm
07:40 33.6 °F /  0.9 °C 32 °F /  0.0 °C 30.1in /  1018.8hPa SSE 5.4mph /  8.7km/h 7.4mph /  11.9km/h 94% 0in /  0.0mm
07:45 33.6 °F /  0.9 °C 32 °F /  0.0 °C 30.1in /  1018.2hPa SSW 6.3mph /  10.1km/h 7.4mph /  11.9km/h 94% 0in /  0.0mm
07:50 33.6 °F /  0.9 °C 32 °F /  0.0 °C 30.1in /  1018.2hPa South 5.4mph /  8.7km/h 7.6mph /  12.2km/h 94% 0in /  0.0mm
07:55 33.8 °F /  1.0 °C 32 °F /  0.0 °C 30.1in /  1018.2hPa South 6mph /  9.7km/h 10.7mph /  17.2km/h 94% 0in /  0.0mm
08:01 33.8 °F /  1.0 °C 32 °F /  0.0 °C 30.1in /  1018.2hPa South 5.4mph /  8.7km/h 10.7mph /  17.2km/h 94% 0in /  0.0mm
08:06 33.8 °F /  1.0 °C 32 °F /  0.0 °C 30.1in /  1018.2hPa South 5.8mph /  9.3km/h 7.8mph /  12.6km/h 94% 0in /  0.0mm
08:11 33.8 °F /  1.0 °C 32 °F /  0.0 °C 30.1in /  1018.2hPa South 5.8mph /  9.3km/h 8.1mph /  13.0km/h 94% 0in /  0.0mm
08:16 33.8 °F /  1.0 °C 33.8 °F /  1.0 °C 30.1in /  1018.2hPa Calm   8.1mph /  13.0km/h 95% 0in /  0.0mm
08:21 33.8 °F /  1.0 °C 33.8 °F /  1.0 °C 30.1in /  1018.2hPa South 5.8mph /  9.3km/h 5.8mph /  9.3km/h 95% 0in /  0.0mm
08:26 33.8 °F /  1.0 °C 33.8 °F /  1.0 °C 30.1in /  1018.2hPa WSW 1.6mph /  2.6km/h 6.3mph /  10.1km/h 95% 0in /  0.0mm
08:31 33.8 °F /  1.0 °C 33.8 °F /  1.0 °C 30.1in /  1018.2hPa South 3.8mph /  6.1km/h 6.3mph /  10.1km/h 95% 0in /  0.0mm
08:36 33.8 °F /  1.0 °C 33.8 °F /  1.0 °C 30.1in /  1018.2hPa South 3.6mph /  5.8km/h 8.5mph /  13.7km/h 95% 0in /  0.0mm
08:41 34 °F /  1.1 °C 33.8 °F /  1.0 °C 30.1in /  1018.2hPa SSE 4.3mph /  6.9km/h 9.6mph /  15.4km/h 95% 0in /  0.0mm
08:46 34 °F /  1.1 °C 33.8 °F /  1.0 °C 30.1in /  1018.2hPa South 4mph /  6.4km/h 10.3mph /  16.6km/h 95% 0in /  0.0mm
08:51 34 °F /  1.1 °C 33.8 °F /  1.0 °C 30.1in /  1018.2hPa South 4.3mph /  6.9km/h 10.3mph /  16.6km/h 95% 0in /  0.0mm
08:56 34.2 °F /  1.2 °C 33.8 °F /  1.0 °C 30.1in /  1018.2hPa South 4.3mph /  6.9km/h 6.5mph /  10.5km/h 96% 0in /  0.0mm
09:01 34.3 °F /  1.3 °C 33.8 °F /  1.0 °C 30.1in /  1018.2hPa SSW 4mph /  6.4km/h 7.2mph /  11.6km/h 96% 0in /  0.0mm
09:06 34.3 °F /  1.3 °C 33.8 °F /  1.0 °C 30.1in /  1018.2hPa SSE 0.9mph /  1.4km/h 7.4mph /  11.9km/h 96% 0in /  0.0mm
09:11 34.3 °F /  1.3 °C 33.8 °F /  1.0 °C 30.1in /  1018.2hPa SSW 3.4mph /  5.5km/h 7.4mph /  11.9km/h 96% 0in /  0.0mm
09:16 34.5 °F /  1.4 °C 33.8 °F /  1.0 °C 30.1in /  1018.2hPa South 5.6mph /  9.0km/h 7.6mph /  12.2km/h 96% 0in /  0.0mm
09:21 34.5 °F /  1.4 °C 33.8 °F /  1.0 °C 30.1in /  1018.2hPa South 4.5mph /  7.2km/h 7.8mph /  12.6km/h 96% 0in /  0.0mm
09:26 34.5 °F /  1.4 °C 33.8 °F /  1.0 °C 30.1in /  1018.2hPa SSE 6mph /  9.7km/h 7.8mph /  12.6km/h 96% 0in /  0.0mm
09:31 34.5 °F /  1.4 °C 33.8 °F /  1.0 °C 30.1in /  1018.2hPa South 6.7mph /  10.8km/h 8.1mph /  13.0km/h 96% 0in /  0.0mm
09:36 34.7 °F /  1.5 °C 33.8 °F /  1.0 °C 30.1in /  1018.2hPa Calm   8.1mph /  13.0km/h 96% 0in /  0.0mm
09:41 34.9 °F /  1.6 °C 33.8 °F /  1.0 °C 30.1in /  1018.2hPa South 4mph /  6.4km/h 8.7mph /  14.0km/h 96% 0in /  0.0mm
09:46 34.9 °F /  1.6 °C 33.8 °F /  1.0 °C 30.1in /  1018.8hPa SSW 6.5mph /  10.5km/h 8.7mph /  14.0km/h 96% 0in /  0.0mm
09:51 34.9 °F /  1.6 °C 33.8 °F /  1.0 °C 30.1in /  1018.8hPa Calm   12.1mph /  19.5km/h 96% 0in /  0.0mm
09:56 34.9 °F /  1.6 °C 33.8 °F /  1.0 °C 30.1in /  1018.8hPa South 2.2mph /  3.5km/h 12.1mph /  19.5km/h 95% 0in /  0.0mm
10:01 35.1 °F /  1.7 °C 33.8 °F /  1.0 °C 30.1in /  1018.2hPa South 4.9mph /  7.9km/h 8.1mph /  13.0km/h 95% 0in /  0.0mm
10:06 35.1 °F /  1.7 °C 33.8 °F /  1.0 °C 30.1in /  1018.2hPa SSE 5.8mph /  9.3km/h 7.8mph /  12.6km/h 96% 0in /  0.0mm
10:11 35.2 °F /  1.8 °C 33.8 °F /  1.0 °C 30.1in /  1018.2hPa Calm   7.8mph /  12.6km/h 96% 0in /  0.0mm
10:13 35.4 °F /  1.9 °C 35.6 °F /  2.0 °C 30.1in /  1018.2hPa SSW 8.5mph /  13.7km/h 8.5mph /  13.7km/h 96% 0in /  0.0mm
10:18 35.2 °F /  1.8 °C 33.8 °F /  1.0 °C 30.1in /  1018.2hPa Calm   8.5mph /  13.7km/h 95% 0in /  0.0mm
10:23 35.2 °F /  1.8 °C 33.8 °F /  1.0 °C 30.1in /  1018.2hPa South 3.4mph /  5.5km/h 8.7mph /  14.0km/h 95% 0in /  0.0mm
10:28 35.4 °F /  1.9 °C 33.8 °F /  1.0 °C 30.1in /  1018.8hPa SE 8.5mph /  13.7km/h 8.7mph /  14.0km/h 95% 0in /  0.0mm
10:34 35.4 °F /  1.9 °C 33.8 °F /  1.0 °C 30.1in /  1018.8hPa SSE 4.5mph /  7.2km/h 8.7mph /  14.0km/h 95% 0in /  0.0mm
10:39 35.4 °F /  1.9 °C 33.8 °F /  1.0 °C 30.1in /  1018.8hPa SSW 6.5mph /  10.5km/h 8.7mph /  14.0km/h 95% 0in /  0.0mm
10:44 35.4 °F /  1.9 °C 33.8 °F /  1.0 °C 30.1in /  1018.2hPa South 3.4mph /  5.5km/h 8.5mph /  13.7km/h 95% 0in /  0.0mm
10:49 35.6 °F /  2.0 °C 35.6 °F /  2.0 °C 30.1in /  1018.2hPa SW 5.4mph /  8.7km/h 8.5mph /  13.7km/h 95% 0in /  0.0mm
10:54 35.6 °F /  2.0 °C 35.6 °F /  2.0 °C 30.1in /  1018.2hPa SSE 5.8mph /  9.3km/h 7.6mph /  12.2km/h 95% 0in /  0.0mm
10:59 35.8 °F /  2.1 °C 35.6 °F /  2.0 °C 30.1in /  1018.2hPa South 4.9mph /  7.9km/h 8.5mph /  13.7km/h 95% 0in /  0.0mm
11:04 35.8 °F /  2.1 °C 35.6 °F /  2.0 °C 30.1in /  1018.2hPa South 5.6mph /  9.0km/h 8.5mph /  13.7km/h 96% 0in /  0.0mm
11:09 36 °F /  2.2 °C 35.6 °F /  2.0 °C 30.1in /  1018.2hPa SSE 5.6mph /  9.0km/h 8.5mph /  13.7km/h 96% 0.01in /  0.3mm
11:14 36 °F /  2.2 °C 35.6 °F /  2.0 °C 30.1in /  1018.2hPa South 7.6mph /  12.2km/h 8.9mph /  14.3km/h 96% 0.01in /  0.3mm
11:19 36.1 °F /  2.3 °C 35.6 °F /  2.0 °C 30.1in /  1018.2hPa South 4.3mph /  6.9km/h 8.9mph /  14.3km/h 96% 0.01in /  0.3mm
11:24 36.3 °F /  2.4 °C 35.6 °F /  2.0 °C 30.1in /  1018.2hPa South 4mph /  6.4km/h 8.7mph /  14.0km/h 96% 0.01in /  0.3mm
11:29 36.3 °F /  2.4 °C 35.6 °F /  2.0 °C 30.1in /  1018.2hPa SSE 7.8mph /  12.6km/h 8.5mph /  13.7km/h 97% 0.01in /  0.3mm
11:34 36.3 °F /  2.4 °C 35.6 °F /  2.0 °C 30.1in /  1018.2hPa SSW 6mph /  9.7km/h 9.8mph /  15.8km/h 97% 0.01in /  0.3mm
11:39 36.5 °F /  2.5 °C 37.4 °F /  3.0 °C 30.1in /  1018.2hPa SSE 9.4mph /  15.1km/h 9.8mph /  15.8km/h 97% 0.01in /  0.3mm
11:44 36.7 °F /  2.6 °C 37.4 °F /  3.0 °C 30.1in /  1018.2hPa South 5.6mph /  9.0km/h 9.4mph /  15.1km/h 97% 0.01in /  0.3mm
11:49 36.5 °F /  2.5 °C 37.4 °F /  3.0 °C 30.1in /  1018.2hPa South 8.5mph /  13.7km/h 9.4mph /  15.1km/h 97% 0.01in /  0.3mm
11:54 36.7 °F /  2.6 °C 37.4 °F /  3.0 °C 30.1in /  1018.2hPa SSW 7.4mph /  11.9km/h 9.8mph /  15.8km/h 97% 0.01in /  0.3mm
11:59 36.7 °F /  2.6 °C 37.4 °F /  3.0 °C 30.1in /  1018.2hPa SSE 6.5mph /  10.5km/h 9.8mph /  15.8km/h 97% 0.01in /  0.3mm
12:04 36.9 °F /  2.7 °C 37.4 °F /  3.0 °C 30.1in /  1018.2hPa South 5.4mph /  8.7km/h 8.5mph /  13.7km/h 97% 0.01in /  0.3mm
12:09 36.9 °F /  2.7 °C 37.4 °F /  3.0 °C 30.1in /  1018.2hPa SSW 6.5mph /  10.5km/h 8.7mph /  14.0km/h 97% 0in /  0.0mm
12:14 37 °F /  2.8 °C 37.4 °F /  3.0 °C 30in /  1016.8hPa SSW 4.9mph /  7.9km/h 8.7mph /  14.0km/h 97% 0in /  0.0mm
12:20 37 °F /  2.8 °C 37.4 °F /  3.0 °C 30in /  1016.8hPa South 1.1mph /  1.8km/h 10.3mph /  16.6km/h 97% 0in /  0.0mm
12:25 37 °F /  2.8 °C 37.4 °F /  3.0 °C 30in /  1016.8hPa South 6.3mph /  10.1km/h 10.3mph /  16.6km/h 97% 0in /  0.0mm
12:30 37 °F /  2.8 °C 37.4 °F /  3.0 °C 30in /  1016.8hPa South 4.3mph /  6.9km/h 8.9mph /  14.3km/h 97% 0in /  0.0mm
12:35 37.4 °F /  3.0 °C 37.4 °F /  3.0 °C 30in /  1016.8hPa SSW 5.6mph /  9.0km/h 8.9mph /  14.3km/h 97% 0in /  0.0mm
12:40 37.4 °F /  3.0 °C 37.4 °F /  3.0 °C 30in /  1016.8hPa SSE 2.9mph /  4.7km/h 8.7mph /  14.0km/h 97% 0in /  0.0mm
12:45 37.6 °F /  3.1 °C 37.4 °F /  3.0 °C 30in /  1016.8hPa SSE 4mph /  6.4km/h 8.7mph /  14.0km/h 97% 0in /  0.0mm
12:50 37.6 °F /  3.1 °C 37.4 °F /  3.0 °C 30in /  1016.8hPa South 8.7mph /  14.0km/h 8.7mph /  14.0km/h 97% 0in /  0.0mm
12:55 37.6 °F /  3.1 °C 37.4 °F /  3.0 °C 30in /  1016.8hPa South 3.8mph /  6.1km/h 9.8mph /  15.8km/h 97% 0in /  0.0mm
13:00 37.8 °F /  3.2 °C 37.4 °F /  3.0 °C 30in /  1016.8hPa South 10.3mph /  16.6km/h 10.3mph /  16.6km/h 97% 0.01in /  0.3mm
13:05 37.8 °F /  3.2 °C 37.4 °F /  3.0 °C 30in /  1016.8hPa South 4.9mph /  7.9km/h 10.3mph /  16.6km/h 97% 0.01in /  0.3mm
13:10 37.9 °F /  3.3 °C 37.4 °F /  3.0 °C 30in /  1016.8hPa SSW 5.4mph /  8.7km/h 8.5mph /  13.7km/h 98% 0.01in /  0.3mm
13:15 38.1 °F /  3.4 °C 37.4 °F /  3.0 °C 30in /  1016.8hPa South 9.6mph /  15.4km/h 9.6mph /  15.4km/h 98% 0.01in /  0.3mm
13:20 38.1 °F /  3.4 °C 37.4 °F /  3.0 °C 30in /  1016.8hPa SSE 5.8mph /  9.3km/h 9.6mph /  15.4km/h 97% 0.01in /  0.3mm
13:25 38.5 °F /  3.6 °C 39.2 °F /  4.0 °C 30in /  1016.8hPa SSE 7.2mph /  11.6km/h 7.8mph /  12.6km/h 98% 0.01in /  0.3mm
13:30 38.7 °F /  3.7 °C 39.2 °F /  4.0 °C 30in /  1016.8hPa South 2.7mph /  4.3km/h 7.8mph /  12.6km/h 98% 0.01in /  0.3mm
13:35 38.7 °F /  3.7 °C 39.2 °F /  4.0 °C 30in /  1016.8hPa SSW 5.8mph /  9.3km/h 9.8mph /  15.8km/h 98% 0.01in /  0.3mm
13:40 38.7 °F /  3.7 °C 39.2 °F /  4.0 °C 30in /  1016.8hPa SSE 2.7mph /  4.3km/h 9.8mph /  15.8km/h 98% 0.01in /  0.3mm
13:45 38.7 °F /  3.7 °C 39.2 °F /  4.0 °C 30in /  1016.1hPa South 3.4mph /  5.5km/h 8.7mph /  14.0km/h 98% 0.02in /  0.5mm
13:50 38.5 °F /  3.6 °C 39.2 °F /  4.0 °C 30in /  1016.1hPa South 5.6mph /  9.0km/h 8.7mph /  14.0km/h 98% 0.02in /  0.5mm
13:55 38.5 °F /  3.6 °C 37.4 °F /  3.0 °C 30in /  1016.1hPa South 3.6mph /  5.8km/h 10.1mph /  16.3km/h 97% 0.01in /  0.3mm
14:01 38.5 °F /  3.6 °C 37.4 °F /  3.0 °C 30in /  1016.8hPa Calm   10.1mph /  16.3km/h 97% 0.01in /  0.3mm
14:06 38.5 °F /  3.6 °C 39.2 °F /  4.0 °C 30in /  1016.8hPa SSW 6mph /  9.7km/h 7.8mph /  12.6km/h 98% 0.01in /  0.3mm
14:11 38.5 °F /  3.6 °C 39.2 °F /  4.0 °C 30in /  1016.8hPa SSW 6mph /  9.7km/h 7.8mph /  12.6km/h 98% 0.01in /  0.3mm
14:16 38.7 °F /  3.7 °C 39.2 °F /  4.0 °C 30in /  1016.8hPa South 6.3mph /  10.1km/h 7.6mph /  12.2km/h 98% 0.01in /  0.3mm
14:21 38.7 °F /  3.7 °C 39.2 °F /  4.0 °C 30in /  1016.8hPa South 4.9mph /  7.9km/h 7.6mph /  12.2km/h 98% 0.01in /  0.3mm
14:26 38.7 °F /  3.7 °C 39.2 °F /  4.0 °C 30in /  1016.8hPa SSE 3.4mph /  5.5km/h 8.1mph /  13.0km/h 98% 0.01in /  0.3mm
14:31 38.7 °F /  3.7 °C 39.2 °F /  4.0 °C 30in /  1016.8hPa SSW 4mph /  6.4km/h 8.1mph /  13.0km/h 98% 0.01in /  0.3mm
14:36 38.8 °F /  3.8 °C 39.2 °F /  4.0 °C 30in /  1016.8hPa SSW 5.6mph /  9.0km/h 10.3mph /  16.6km/h 98% 0.03in /  0.8mm
14:41 38.8 °F /  3.8 °C 39.2 °F /  4.0 °C 30in /  1016.8hPa Calm   10.3mph /  16.6km/h 98% 0.03in /  0.8mm
14:46 38.8 °F /  3.8 °C 39.2 °F /  4.0 °C 30in /  1016.8hPa SSW 6mph /  9.7km/h 8.1mph /  13.0km/h 98% 0.01in /  0.3mm
14:51 38.8 °F /  3.8 °C 39.2 °F /  4.0 °C 30in /  1016.8hPa South 4.7mph /  7.6km/h 8.1mph /  13.0km/h 98% 0.01in /  0.3mm
14:56 38.7 °F /  3.7 °C 39.2 °F /  4.0 °C 30in /  1016.8hPa South 4.9mph /  7.9km/h 8.9mph /  14.3km/h 98% 0.01in /  0.3mm
15:01 38.7 °F /  3.7 °C 39.2 °F /  4.0 °C 30in /  1016.8hPa SSW 2.9mph /  4.7km/h 8.9mph /  14.3km/h 98% 0.01in /  0.3mm
15:06 38.8 °F /  3.8 °C 39.2 °F /  4.0 °C 30in /  1016.8hPa SSE 7.6mph /  12.2km/h 7.6mph /  12.2km/h 98% 0.01in /  0.3mm
15:11 38.8 °F /  3.8 °C 39.2 °F /  4.0 °C 30in /  1016.8hPa Calm   7.6mph /  12.2km/h 98% 0.01in /  0.3mm
15:16 38.8 °F /  3.8 °C 39.2 °F /  4.0 °C 30in /  1016.1hPa South 4.3mph /  6.9km/h 7.6mph /  12.2km/h 98% 0.01in /  0.3mm
15:21 38.8 °F /  3.8 °C 39.2 °F /  4.0 °C 30in /  1016.1hPa South 6.7mph /  10.8km/h 8.7mph /  14.0km/h 98% 0.03in /  0.8mm
15:26 38.8 °F /  3.8 °C 39.2 °F /  4.0 °C 30in /  1016.1hPa Calm   8.7mph /  14.0km/h 98% 0.03in /  0.8mm
15:31 38.8 °F /  3.8 °C 39.2 °F /  4.0 °C 30in /  1016.1hPa SSW 2.9mph /  4.7km/h 6.7mph /  10.8km/h 98% 0.01in /  0.3mm
15:36 38.8 °F /  3.8 °C 39.2 °F /  4.0 °C 30in /  1016.1hPa SSW 1.3mph /  2.1km/h 6.5mph /  10.5km/h 98% 0.01in /  0.3mm
15:41 38.8 °F /  3.8 °C 39.2 °F /  4.0 °C 30in /  1016.1hPa Calm   6.3mph /  10.1km/h 98% 0.01in /  0.3mm
15:46 38.8 °F /  3.8 °C 39.2 °F /  4.0 °C 30in /  1016.1hPa SSW 6.9mph /  11.1km/h 7.8mph /  12.6km/h 98% 0.01in /  0.3mm
15:51 38.8 °F /  3.8 °C 39.2 °F /  4.0 °C 30in /  1016.1hPa SSE 4.9mph /  7.9km/h 8.7mph /  14.0km/h 98% 0.01in /  0.3mm
15:56 39 °F /  3.9 °C 39.2 °F /  4.0 °C 30in /  1016.1hPa SSW 4mph /  6.4km/h 8.7mph /  14.0km/h 98% 0.01in /  0.3mm
16:01 39 °F /  3.9 °C 39.2 °F /  4.0 °C 30in /  1016.1hPa SSE 5.4mph /  8.7km/h 7.2mph /  11.6km/h 98% 0.01in /  0.3mm
16:07 39 °F /  3.9 °C 39.2 °F /  4.0 °C 30in /  1016.1hPa SSE 6mph /  9.7km/h 7.4mph /  11.9km/h 98% 0.01in /  0.3mm
16:12 39.2 °F /  4.0 °C 39.2 °F /  4.0 °C 30in /  1016.1hPa South 4.9mph /  7.9km/h 7.8mph /  12.6km/h 98% 0.01in /  0.3mm
16:17 39.2 °F /  4.0 °C 39.2 °F /  4.0 °C 30in /  1016.1hPa South 4.9mph /  7.9km/h 7.8mph /  12.6km/h 98% 0in /  0.0mm
16:22 39.2 °F /  4.0 °C 39.2 °F /  4.0 °C 30in /  1016.1hPa SSE 3.8mph /  6.1km/h 8.5mph /  13.7km/h 98% 0in /  0.0mm
16:27 39.2 °F /  4.0 °C 39.2 °F /  4.0 °C 30in /  1016.1hPa Calm   8.5mph /  13.7km/h 98% 0in /  0.0mm
16:32 39.2 °F /  4.0 °C 39.2 °F /  4.0 °C 30in /  1015.1hPa South 6.3mph /  10.1km/h 8.1mph /  13.0km/h 98% 0in /  0.0mm
16:37 39.2 °F /  4.0 °C 39.2 °F /  4.0 °C 30in /  1015.1hPa South 3.4mph /  5.5km/h 9.6mph /  15.4km/h 98% 0.01in /  0.3mm
16:42 39.2 °F /  4.0 °C 39.2 °F /  4.0 °C 30in /  1015.1hPa South 4.7mph /  7.6km/h 9.6mph /  15.4km/h 98% 0.01in /  0.3mm
16:47 39.2 °F /  4.0 °C 39.2 °F /  4.0 °C 30in /  1015.1hPa South 8.1mph /  13.0km/h 8.1mph /  13.0km/h 98% 0.01in /  0.3mm
16:52 39.2 °F /  4.0 °C 39.2 °F /  4.0 °C 30in /  1015.1hPa Calm   8.1mph /  13.0km/h 98% 0.01in /  0.3mm
16:57 39.2 °F /  4.0 °C 39.2 °F /  4.0 °C 30in /  1015.1hPa South 2.2mph /  3.5km/h 8.1mph /  13.0km/h 98% 0.01in /  0.3mm
17:02 39.2 °F /  4.0 °C 39.2 °F /  4.0 °C 30in /  1015.1hPa SSW 2.9mph /  4.7km/h 6.5mph /  10.5km/h 98% 0.01in /  0.3mm
17:07 39.2 °F /  4.0 °C 39.2 °F /  4.0 °C 30in /  1015.1hPa SSE 2.9mph /  4.7km/h 8.1mph /  13.0km/h 98% 0.01in /  0.3mm
17:12 39.2 °F /  4.0 °C 39.2 °F /  4.0 °C 30in /  1015.1hPa South 6.3mph /  10.1km/h 8.1mph /  13.0km/h 98% 0.01in /  0.3mm
17:17 39.2 °F /  4.0 °C 39.2 °F /  4.0 °C 30in /  1015.1hPa SSW 7.6mph /  12.2km/h 7.8mph /  12.6km/h 98% 0.01in /  0.3mm
17:22 39.2 °F /  4.0 °C 39.2 °F /  4.0 °C 30in /  1015.1hPa SW 3.4mph /  5.5km/h 7.8mph /  12.6km/h 98% 0.01in /  0.3mm
17:27 39.2 °F /  4.0 °C 39.2 °F /  4.0 °C 30in /  1015.1hPa SSE 3.1mph /  5.0km/h 7.6mph /  12.2km/h 98% 0.01in /  0.3mm
17:32 39.2 °F /  4.0 °C 39.2 °F /  4.0 °C 29.9in /  1014.1hPa Calm   6.3mph /  10.1km/h 98% 0.01in /  0.3mm
17:37 39.4 °F /  4.1 °C 39.2 °F /  4.0 °C 29.9in /  1014.1hPa South 6.3mph /  10.1km/h 6.3mph /  10.1km/h 98% 0in /  0.0mm
17:42 39.2 °F /  4.0 °C 39.2 °F /  4.0 °C 29.9in /  1014.1hPa South 2.2mph /  3.5km/h 6.3mph /  10.1km/h 98% 0in /  0.0mm
17:47 39.4 °F /  4.1 °C 39.2 °F /  4.0 °C 30in /  1015.1hPa Calm   6.3mph /  10.1km/h 98% 0in /  0.0mm
17:52 39.4 °F /  4.1 °C 39.2 °F /  4.0 °C 30in /  1015.1hPa Calm   5.6mph /  9.0km/h 98% 0in /  0.0mm
17:57 39.4 °F /  4.1 °C 39.2 °F /  4.0 °C 30in /  1015.1hPa Calm   5.6mph /  9.0km/h 98% 0in /  0.0mm
18:02 39.4 °F /  4.1 °C 39.2 °F /  4.0 °C 30in /  1015.1hPa South 2.7mph /  4.3km/h 4mph /  6.4km/h 98% 0in /  0.0mm
18:07 39.4 °F /  4.1 °C 39.2 °F /  4.0 °C 30in /  1015.1hPa Calm   4.9mph /  7.9km/h 98% 0in /  0.0mm
18:13 39.2 °F /  4.0 °C 39.2 °F /  4.0 °C 30in /  1015.1hPa SSW 5.6mph /  9.0km/h 5.6mph /  9.0km/h 98% 0in /  0.0mm
18:18 39.2 °F /  4.0 °C 39.2 °F /  4.0 °C 29.9in /  1014.1hPa Calm   5.6mph /  9.0km/h 98% 0in /  0.0mm
18:23 39.2 °F /  4.0 °C 39.2 °F /  4.0 °C 29.9in /  1014.1hPa Calm   5.8mph /  9.3km/h 98% 0in /  0.0mm
18:28 39.2 °F /  4.0 °C 39.2 °F /  4.0 °C 29.9in /  1014.1hPa South 1.3mph /  2.1km/h 5.8mph /  9.3km/h 98% 0.01in /  0.3mm
18:33 39.2 °F /  4.0 °C 39.2 °F /  4.0 °C 29.9in /  1014.1hPa SSW 2.2mph /  3.5km/h 5.8mph /  9.3km/h 98% 0.01in /  0.3mm
18:38 39.2 °F /  4.0 °C 39.2 °F /  4.0 °C 29.9in /  1014.1hPa Calm   5.6mph /  9.0km/h 98% 0.01in /  0.3mm
18:43 39.2 °F /  4.0 °C 39.2 °F /  4.0 °C 29.9in /  1014.1hPa Calm   4.3mph /  6.9km/h 98% 0.01in /  0.3mm
18:48 39.2 °F /  4.0 °C 39.2 °F /  4.0 °C 30in /  1015.1hPa South 5.4mph /  8.7km/h 5.4mph /  8.7km/h 98% 0.01in /  0.3mm
18:53 39.2 °F /  4.0 °C 39.2 °F /  4.0 °C 30in /  1015.1hPa Calm   5.4mph /  8.7km/h 98% 0.01in /  0.3mm
18:58 39.2 °F /  4.0 °C 39.2 °F /  4.0 °C 30in /  1015.1hPa Calm   4.9mph /  7.9km/h 98% 0.01in /  0.3mm
19:03 39.2 °F /  4.0 °C 39.2 °F /  4.0 °C 30in /  1015.1hPa Calm   4.9mph /  7.9km/h 98% 0.01in /  0.3mm
19:08 39.2 °F /  4.0 °C 39.2 °F /  4.0 °C 30in /  1015.1hPa Calm   3.4mph /  5.5km/h 98% 0.01in /  0.3mm
19:13 39.2 °F /  4.0 °C 39.2 °F /  4.0 °C 30in /  1015.1hPa Calm   5.6mph /  9.0km/h 98% 0.01in /  0.3mm
19:18 39.2 °F /  4.0 °C 39.2 °F /  4.0 °C 30in /  1015.1hPa SSE 2.9mph /  4.7km/h 6mph /  9.7km/h 98% 0.01in /  0.3mm
19:23 39.2 °F /  4.0 °C 39.2 °F /  4.0 °C 30in /  1015.1hPa Calm   6mph /  9.7km/h 98% 0.01in /  0.3mm
19:28 39.2 °F /  4.0 °C 39.2 °F /  4.0 °C 30in /  1015.1hPa South 3.8mph /  6.1km/h 6.5mph /  10.5km/h 98% 0in /  0.0mm
19:33 39.2 °F /  4.0 °C 39.2 °F /  4.0 °C 30in /  1015.1hPa Calm   6.5mph /  10.5km/h 98% 0in /  0.0mm
19:38 39.2 °F /  4.0 °C 39.2 °F /  4.0 °C 30in /  1015.1hPa Calm   4.9mph /  7.9km/h 98% 0in /  0.0mm
19:43 39.2 °F /  4.0 °C 39.2 °F /  4.0 °C 30in /  1015.1hPa Calm   4.9mph /  7.9km/h 98% 0in /  0.0mm
19:48 39.2 °F /  4.0 °C 39.2 °F /  4.0 °C 29.9in /  1014.1hPa South 3.8mph /  6.1km/h 4.9mph /  7.9km/h 98% 0in /  0.0mm
19:53 39.2 °F /  4.0 °C 39.2 °F /  4.0 °C 29.9in /  1014.1hPa Calm   4.9mph /  7.9km/h 98% 0in /  0.0mm
19:58 39.2 °F /  4.0 °C 39.2 °F /  4.0 °C 29.9in /  1014.1hPa SE 3.4mph /  5.5km/h 4.7mph /  7.6km/h 98% 0in /  0.0mm
20:03 39.2 °F /  4.0 °C 39.2 °F /  4.0 °C 30in /  1015.1hPa South 3.8mph /  6.1km/h 8.5mph /  13.7km/h 98% 0in /  0.0mm
20:08 39.2 °F /  4.0 °C 39.2 °F /  4.0 °C 30in /  1015.1hPa Calm   8.5mph /  13.7km/h 98% 0in /  0.0mm
20:10 39.2 °F /  4.0 °C 39.2 °F /  4.0 °C 30in /  1015.1hPa Calm   8.5mph /  13.7km/h 98% 0in /  0.0mm
20:15 39.2 °F /  4.0 °C 39.2 °F /  4.0 °C 29.9in /  1014.1hPa Calm   4mph /  6.4km/h 98% 0in /  0.0mm
20:20 39.2 °F /  4.0 °C 39.2 °F /  4.0 °C 29.9in /  1014.1hPa SSE 4.7mph /  7.6km/h 4.7mph /  7.6km/h 98% 0.01in /  0.3mm
20:25 39.2 °F /  4.0 °C 39.2 °F /  4.0 °C 29.9in /  1014.1hPa Calm   4.7mph /  7.6km/h 98% 0.01in /  0.3mm
20:30 39.2 °F /  4.0 °C 39.2 °F /  4.0 °C 30in /  1015.1hPa Calm   4.7mph /  7.6km/h 98% 0.01in /  0.3mm
20:35 39.2 °F /  4.0 °C 39.2 °F /  4.0 °C 30in /  1015.1hPa Calm   2.9mph /  4.7km/h 98% 0.01in /  0.3mm
20:40 39.2 °F /  4.0 °C 39.2 °F /  4.0 °C 30in /  1015.1hPa Calm   2mph /  3.2km/h 98% 0.01in /  0.3mm
20:45 39.2 °F /  4.0 °C 39.2 °F /  4.0 °C 30in /  1015.1hPa Calm   4.7mph /  7.6km/h 98% 0.01in /  0.3mm
20:50 39 °F /  3.9 °C 39.2 °F /  4.0 °C 30in /  1015.1hPa SSE 0.9mph /  1.4km/h 4.7mph /  7.6km/h 98% 0.01in /  0.3mm
20:55 39 °F /  3.9 °C 39.2 °F /  4.0 °C 30in /  1015.1hPa Calm   4mph /  6.4km/h 98% 0.01in /  0.3mm
21:00 39 °F /  3.9 °C 39.2 °F /  4.0 °C 30in /  1015.1hPa SSE 1.1mph /  1.8km/h 4mph /  6.4km/h 98% 0.01in /  0.3mm
21:05 38.8 °F /  3.8 °C 39.2 °F /  4.0 °C 30in /  1015.1hPa Calm   3.6mph /  5.8km/h 98% 0.01in /  0.3mm
21:10 38.8 °F /  3.8 °C 39.2 °F /  4.0 °C 30in /  1015.1hPa SSE 3.6mph /  5.8km/h 3.6mph /  5.8km/h 98% 0.01in /  0.3mm
21:15 38.8 °F /  3.8 °C 39.2 °F /  4.0 °C 30in /  1015.1hPa Calm   3.8mph /  6.1km/h 98% 0.01in /  0.3mm
21:20 38.8 °F /  3.8 °C 39.2 °F /  4.0 °C 30in /  1015.1hPa SSE 4.3mph /  6.9km/h 4.3mph /  6.9km/h 98% 0in /  0.0mm
21:25 38.7 °F /  3.7 °C 39.2 °F /  4.0 °C 30in /  1015.1hPa SSE 0.9mph /  1.4km/h 4.3mph /  6.9km/h 98% 0in /  0.0mm
21:30 38.7 °F /  3.7 °C 39.2 °F /  4.0 °C 30in /  1015.1hPa Calm   4.3mph /  6.9km/h 98% 0in /  0.0mm
21:36 38.7 °F /  3.7 °C 39.2 °F /  4.0 °C 30in /  1015.1hPa Calm   0.9mph /  1.4km/h 98% 0in /  0.0mm
21:41 38.7 °F /  3.7 °C 39.2 °F /  4.0 °C 30in /  1015.1hPa Calm     98% 0in /  0.0mm
21:46 38.7 °F /  3.7 °C 39.2 °F /  4.0 °C 30in /  1015.1hPa Calm     98% 0in /  0.0mm
21:51 38.7 °F /  3.7 °C 39.2 °F /  4.0 °C 30in /  1015.1hPa Calm     98% 0in /  0.0mm
21:56 38.7 °F /  3.7 °C 39.2 °F /  4.0 °C 30in /  1015.1hPa SSE 2.9mph /  4.7km/h 2.9mph /  4.7km/h 98% 0in /  0.0mm
22:01 38.5 °F /  3.6 °C 39.2 °F /  4.0 °C 30in /  1015.1hPa Calm   2.9mph /  4.7km/h 98% 0in /  0.0mm
22:06 38.5 °F /  3.6 °C 39.2 °F /  4.0 °C 30in /  1015.1hPa Calm   5.4mph /  8.7km/h 98% 0in /  0.0mm
22:11 38.5 °F /  3.6 °C 39.2 °F /  4.0 °C 30in /  1015.1hPa Calm   5.4mph /  8.7km/h 98% 0in /  0.0mm
22:16 38.5 °F /  3.6 °C 39.2 °F /  4.0 °C 29.9in /  1014.1hPa Calm   3.8mph /  6.1km/h 98% 0in /  0.0mm
22:21 38.5 °F /  3.6 °C 39.2 °F /  4.0 °C 29.9in /  1014.1hPa SSE 4.9mph /  7.9km/h 4.9mph /  7.9km/h 98% 0in /  0.0mm
22:26 38.5 °F /  3.6 °C 39.2 °F /  4.0 °C 29.9in /  1014.1hPa Calm   4.9mph /  7.9km/h 98% 0in /  0.0mm
22:31 38.5 °F /  3.6 °C 39.2 °F /  4.0 °C 30in /  1015.1hPa South 2mph /  3.2km/h 4.9mph /  7.9km/h 98% 0in /  0.0mm
22:36 38.5 °F /  3.6 °C 39.2 °F /  4.0 °C 30in /  1015.1hPa SSE 4.3mph /  6.9km/h 4.9mph /  7.9km/h 98% 0in /  0.0mm
22:41 38.5 °F /  3.6 °C 39.2 °F /  4.0 °C 30in /  1015.1hPa SSE 4mph /  6.4km/h 6.3mph /  10.1km/h 98% 0in /  0.0mm
22:46 38.5 °F /  3.6 °C 39.2 °F /  4.0 °C 30in /  1015.1hPa Calm   6.3mph /  10.1km/h 98% 0in /  0.0mm
22:51 38.5 °F /  3.6 °C 39.2 °F /  4.0 °C 30in /  1015.1hPa Calm   4mph /  6.4km/h 98% 0in /  0.0mm
22:56 38.5 °F /  3.6 °C 39.2 °F /  4.0 °C 30in /  1015.1hPa Calm     98% 0in /  0.0mm
23:01 38.3 °F /  3.5 °C 39.2 °F /  4.0 °C 30in /  1015.1hPa Calm     98% 0in /  0.0mm
23:06 38.3 °F /  3.5 °C 39.2 °F /  4.0 °C 30in /  1015.1hPa Calm     98% 0in /  0.0mm
23:11 38.3 °F /  3.5 °C 39.2 °F /  4.0 °C 30in /  1015.1hPa Calm     98% 0in /  0.0mm
23:17 38.3 °F /  3.5 °C 39.2 °F /  4.0 °C 30in /  1015.1hPa Calm     98% 0in /  0.0mm
23:22 38.3 °F /  3.5 °C 39.2 °F /  4.0 °C 30in /  1015.1hPa Calm     98% 0in /  0.0mm
23:27 38.3 °F /  3.5 °C 39.2 °F /  4.0 °C 30in /  1015.1hPa Calm     98% 0in /  0.0mm
23:32 38.3 °F /  3.5 °C 39.2 °F /  4.0 °C 30in /  1015.1hPa Calm     98% 0in /  0.0mm
23:37 38.3 °F /  3.5 °C 39.2 °F /  4.0 °C 30in /  1015.1hPa SSE 0.9mph /  1.4km/h 3.1mph /  5.0km/h 98% 0in /  0.0mm
23:42 38.3 °F /  3.5 °C 39.2 °F /  4.0 °C 30in /  1015.1hPa Calm   3.1mph /  5.0km/h 98% 0in /  0.0mm
23:47 38.3 °F /  3.5 °C 39.2 °F /  4.0 °C 29.9in /  1014.1hPa SE 2.7mph /  4.3km/h 4.3mph /  6.9km/h 98% 0in /  0.0mm
23:52 38.3 °F /  3.5 °C 39.2 °F /  4.0 °C 29.9in /  1014.1hPa SE 2.7mph /  4.3km/h 4.3mph /  6.9km/h 98% 0in /  0.0mm
23:53 38.3 °F /  3.5 °C 39.2 °F /  4.0 °C 29.9in /  1014.1hPa Calm   4.3mph /  6.9km/h 98% 0in /  0.0mm
23:58 38.3 °F /  3.5 °C 39.2 °F /  4.0 °C 29.9in /  1014.1hPa SE 3.4mph /  5.5km/h 3.4mph /  5.5km/h 98% 0in /  0.0mm
Données Historique de Météo Turbie

Mise a jour : 18/06/2018 07:39:13
Généré par Cumulus 1.9.4 (1099)